sensor_id;sensor_type;location;lat;lon;timestamp;P1;durP1;ratioP1;P2;durP2;ratioP2
7645;SDS011;3864;48.180;14.178;2024-02-21T00:35:06;6.40;;;3.13;;
7645;SDS011;3864;48.180;14.178;2024-02-21T00:37:34;5.15;;;2.70;;
7645;SDS011;3864;48.180;14.178;2024-02-21T01:17:47;5.65;;;2.67;;
7645;SDS011;3864;48.180;14.178;2024-02-21T01:20:16;4.32;;;2.40;;
7645;SDS011;3864;48.180;14.178;2024-02-21T01:22:43;5.00;;;2.80;;
7645;SDS011;3864;48.180;14.178;2024-02-21T01:25:10;5.90;;;2.60;;
7645;SDS011;3864;48.180;14.178;2024-02-21T01:27:37;5.50;;;2.63;;
7645;SDS011;3864;48.180;14.178;2024-02-21T01:30:04;5.07;;;2.33;;
7645;SDS011;3864;48.180;14.178;2024-02-21T01:32:34;4.50;;;2.17;;
7645;SDS011;3864;48.180;14.178;2024-02-21T01:35:01;4.15;;;2.10;;
7645;SDS011;3864;48.180;14.178;2024-02-21T01:37:28;7.20;;;2.63;;
7645;SDS011;3864;48.180;14.178;2024-02-21T01:39:55;3.47;;;2.45;;
7645;SDS011;3864;48.180;14.178;2024-02-21T01:42:22;4.13;;;2.20;;
7645;SDS011;3864;48.180;14.178;2024-02-21T01:44:49;5.07;;;2.10;;
7645;SDS011;3864;48.180;14.178;2024-02-21T01:47:17;3.90;;;2.30;;
7645;SDS011;3864;48.180;14.178;2024-02-21T01:49:46;4.07;;;2.40;;
7645;SDS011;3864;48.180;14.178;2024-02-21T01:52:14;4.47;;;2.40;;
7645;SDS011;3864;48.180;14.178;2024-02-21T01:54:42;5.95;;;2.47;;
7645;SDS011;3864;48.180;14.178;2024-02-21T01:57:10;3.42;;;1.95;;
7645;SDS011;3864;48.180;14.178;2024-02-21T01:59:37;6.13;;;2.88;;
7645;SDS011;3864;48.180;14.178;2024-02-21T02:02:05;5.07;;;2.50;;
7645;SDS011;3864;48.180;14.178;2024-02-21T02:04:32;5.72;;;2.72;;
7645;SDS011;3864;48.180;14.178;2024-02-21T02:07:03;5.63;;;2.30;;
7645;SDS011;3864;48.180;14.178;2024-02-21T02:09:32;4.82;;;2.47;;
7645;SDS011;3864;48.180;14.178;2024-02-21T02:12:00;7.40;;;2.88;;
7645;SDS011;3864;48.180;14.178;2024-02-21T02:14:28;5.05;;;2.30;;
7645;SDS011;3864;48.180;14.178;2024-02-21T02:16:55;4.28;;;2.10;;
7645;SDS011;3864;48.180;14.178;2024-02-21T02:19:22;4.30;;;2.50;;
7645;SDS011;3864;48.180;14.178;2024-02-21T02:21:49;4.50;;;2.38;;
7645;SDS011;3864;48.180;14.178;2024-02-21T02:24:23;7.90;;;3.10;;
7645;SDS011;3864;48.180;14.178;2024-02-21T02:26:51;4.95;;;2.17;;
7645;SDS011;3864;48.180;14.178;2024-02-21T02:29:18;5.38;;;2.40;;
7645;SDS011;3864;48.180;14.178;2024-02-21T02:31:45;6.30;;;2.53;;
7645;SDS011;3864;48.180;14.178;2024-02-21T02:34:13;6.22;;;2.47;;
7645;SDS011;3864;48.180;14.178;2024-02-21T02:36:40;4.20;;;2.13;;
7645;SDS011;3864;48.180;14.178;2024-02-21T02:39:07;4.13;;;2.30;;
7645;SDS011;3864;48.180;14.178;2024-02-21T02:41:36;4.97;;;2.38;;
7645;SDS011;3864;48.180;14.178;2024-02-21T02:44:03;2.85;;;1.95;;
7645;SDS011;3864;48.180;14.178;2024-02-21T02:46:30;6.85;;;3.83;;
7645;SDS011;3864;48.180;14.178;2024-02-21T02:48:57;4.90;;;2.00;;
7645;SDS011;3864;48.180;14.178;2024-02-21T02:51:24;6.38;;;2.10;;
7645;SDS011;3864;48.180;14.178;2024-02-21T02:53:51;6.15;;;2.55;;
7645;SDS011;3864;48.180;14.178;2024-02-21T02:58:46;4.28;;;2.30;;
7645;SDS011;3864;48.180;14.178;2024-02-21T03:01:13;3.75;;;2.15;;
7645;SDS011;3864;48.180;14.178;2024-02-21T03:03:41;8.25;;;2.35;;
7645;SDS011;3864;48.180;14.178;2024-02-21T03:06:08;3.25;;;2.03;;
7645;SDS011;3864;48.180;14.178;2024-02-21T03:08:35;6.68;;;2.25;;
7645;SDS011;3864;48.180;14.178;2024-02-21T03:11:02;5.35;;;2.35;;
7645;SDS011;3864;48.180;14.178;2024-02-21T03:13:29;3.70;;;2.03;;
7645;SDS011;3864;48.180;14.178;2024-02-21T03:15:58;3.83;;;1.98;;
7645;SDS011;3864;48.180;14.178;2024-02-21T03:18:25;5.07;;;2.33;;
7645;SDS011;3864;48.180;14.178;2024-02-21T03:20:52;6.10;;;2.22;;
7645;SDS011;3864;48.180;14.178;2024-02-21T03:23:19;5.57;;;2.22;;
7645;SDS011;3864;48.180;14.178;2024-02-21T03:25:46;4.13;;;2.30;;
7645;SDS011;3864;48.180;14.178;2024-02-21T03:28:14;6.40;;;2.08;;
7645;SDS011;3864;48.180;14.178;2024-02-21T03:30:41;3.80;;;2.05;;
7645;SDS011;3864;48.180;14.178;2024-02-21T03:33:10;6.95;;;2.22;;
7645;SDS011;3864;48.180;14.178;2024-02-21T03:35:37;6.00;;;2.40;;
7645;SDS011;3864;48.180;14.178;2024-02-21T03:38:04;6.32;;;2.13;;
7645;SDS011;3864;48.180;14.178;2024-02-21T03:40:31;3.50;;;2.10;;
7645;SDS011;3864;48.180;14.178;2024-02-21T03:42:58;4.50;;;1.85;;
7645;SDS011;3864;48.180;14.178;2024-02-21T03:45:25;4.22;;;2.60;;
7645;SDS011;3864;48.180;14.178;2024-02-21T03:47:52;5.60;;;2.08;;
7645;SDS011;3864;48.180;14.178;2024-02-21T03:50:21;6.25;;;2.25;;
7645;SDS011;3864;48.180;14.178;2024-02-21T03:52:49;3.80;;;2.00;;
7645;SDS011;3864;48.180;14.178;2024-02-21T03:57:42;6.53;;;2.00;;
7645;SDS011;3864;48.180;14.178;2024-02-21T04:00:10;4.88;;;1.88;;
7645;SDS011;3864;48.180;14.178;2024-02-21T04:02:38;5.70;;;2.30;;
7645;SDS011;3864;48.180;14.178;2024-02-21T04:05:05;5.35;;;2.38;;
7645;SDS011;3864;48.180;14.178;2024-02-21T04:07:38;4.80;;;2.30;;
7645;SDS011;3864;48.180;14.178;2024-02-21T04:10:05;3.75;;;2.13;;
7645;SDS011;3864;48.180;14.178;2024-02-21T04:12:33;4.78;;;2.28;;
7645;SDS011;3864;48.180;14.178;2024-02-21T04:15:00;5.45;;;3.10;;
7645;SDS011;3864;48.180;14.178;2024-02-21T04:17:27;5.32;;;2.50;;
7645;SDS011;3864;48.180;14.178;2024-02-21T04:20:00;5.68;;;2.30;;
7645;SDS011;3864;48.180;14.178;2024-02-21T04:22:30;5.45;;;2.53;;
7645;SDS011;3864;48.180;14.178;2024-02-21T04:24:59;5.78;;;2.33;;
7645;SDS011;3864;48.180;14.178;2024-02-21T04:27:26;4.13;;;2.70;;
7645;SDS011;3864;48.180;14.178;2024-02-21T04:29:53;4.65;;;2.40;;
7645;SDS011;3864;48.180;14.178;2024-02-21T04:32:21;4.97;;;2.15;;
7645;SDS011;3864;48.180;14.178;2024-02-21T04:34:48;6.22;;;2.28;;
7645;SDS011;3864;48.180;14.178;2024-02-21T04:37:15;4.30;;;2.25;;
7645;SDS011;3864;48.180;14.178;2024-02-21T04:42:11;6.32;;;2.35;;
7645;SDS011;3864;48.180;14.178;2024-02-21T04:44:38;3.58;;;2.17;;
7645;SDS011;3864;48.180;14.178;2024-02-21T04:49:32;3.80;;;2.15;;
7645;SDS011;3864;48.180;14.178;2024-02-21T04:54:27;5.22;;;2.55;;
7645;SDS011;3864;48.180;14.178;2024-02-21T04:59:22;5.80;;;2.42;;
7645;SDS011;3864;48.180;14.178;2024-02-21T05:01:49;5.50;;;2.40;;
7645;SDS011;3864;48.180;14.178;2024-02-21T05:04:16;4.70;;;2.15;;
7645;SDS011;3864;48.180;14.178;2024-02-21T05:06:43;5.85;;;2.40;;
7645;SDS011;3864;48.180;14.178;2024-02-21T05:09:10;5.65;;;2.50;;
7645;SDS011;3864;48.180;14.178;2024-02-21T05:11:38;5.78;;;2.17;;
7645;SDS011;3864;48.180;14.178;2024-02-21T05:14:05;5.65;;;2.50;;
7645;SDS011;3864;48.180;14.178;2024-02-21T05:16:34;4.50;;;2.35;;
7645;SDS011;3864;48.180;14.178;2024-02-21T05:19:01;5.70;;;2.30;;
7645;SDS011;3864;48.180;14.178;2024-02-21T05:21:29;5.20;;;2.40;;
7645;SDS011;3864;48.180;14.178;2024-02-21T05:23:56;4.70;;;2.10;;
7645;SDS011;3864;48.180;14.178;2024-02-21T05:26:25;5.18;;;2.10;;
7645;SDS011;3864;48.180;14.178;2024-02-21T05:28:54;4.35;;;1.95;;
7645;SDS011;3864;48.180;14.178;2024-02-21T05:31:21;5.00;;;2.60;;
7645;SDS011;3864;48.180;14.178;2024-02-21T05:33:50;4.00;;;2.78;;
7645;SDS011;3864;48.180;14.178;2024-02-21T05:36:17;3.75;;;2.10;;
7645;SDS011;3864;48.180;14.178;2024-02-21T05:38:44;3.15;;;1.98;;
7645;SDS011;3864;48.180;14.178;2024-02-21T05:41:11;5.78;;;2.30;;
7645;SDS011;3864;48.180;14.178;2024-02-21T05:43:40;5.90;;;2.30;;
7645;SDS011;3864;48.180;14.178;2024-02-21T05:46:07;5.22;;;2.08;;
7645;SDS011;3864;48.180;14.178;2024-02-21T05:48:34;5.75;;;2.58;;
7645;SDS011;3864;48.180;14.178;2024-02-21T05:51:04;4.22;;;2.05;;
7645;SDS011;3864;48.180;14.178;2024-02-21T05:53:31;5.60;;;2.42;;
7645;SDS011;3864;48.180;14.178;2024-02-21T05:58:24;3.45;;;1.80;;
7645;SDS011;3864;48.180;14.178;2024-02-21T06:00:56;6.30;;;2.72;;
7645;SDS011;3864;48.180;14.178;2024-02-21T06:03:23;3.97;;;2.20;;
7645;SDS011;3864;48.180;14.178;2024-02-21T06:05:50;4.32;;;2.20;;
7645;SDS011;3864;48.180;14.178;2024-02-21T06:08:19;3.83;;;2.20;;
7645;SDS011;3864;48.180;14.178;2024-02-21T06:10:46;4.07;;;2.20;;
7645;SDS011;3864;48.180;14.178;2024-02-21T06:13:17;4.90;;;1.90;;
7645;SDS011;3864;48.180;14.178;2024-02-21T06:15:44;4.10;;;2.00;;
7645;SDS011;3864;48.180;14.178;2024-02-21T06:18:11;3.75;;;1.95;;
7645;SDS011;3864;48.180;14.178;2024-02-21T06:20:38;5.50;;;2.25;;
7645;SDS011;3864;48.180;14.178;2024-02-21T06:23:05;4.95;;;2.08;;
7645;SDS011;3864;48.180;14.178;2024-02-21T06:25:34;4.75;;;2.35;;
7645;SDS011;3864;48.180;14.178;2024-02-21T06:28:00;3.65;;;2.20;;
7645;SDS011;3864;48.180;14.178;2024-02-21T06:30:27;6.05;;;2.20;;
7645;SDS011;3864;48.180;14.178;2024-02-21T06:32:54;4.03;;;2.17;;
7645;SDS011;3864;48.180;14.178;2024-02-21T06:35:22;4.57;;;2.08;;
7645;SDS011;3864;48.180;14.178;2024-02-21T06:37:49;4.50;;;2.50;;
7645;SDS011;3864;48.180;14.178;2024-02-21T06:40:17;6.10;;;2.53;;
7645;SDS011;3864;48.180;14.178;2024-02-21T06:42:46;5.65;;;2.03;;
7645;SDS011;3864;48.180;14.178;2024-02-21T06:45:13;6.28;;;2.25;;
7645;SDS011;3864;48.180;14.178;2024-02-21T06:50:07;5.38;;;2.53;;
7645;SDS011;3864;48.180;14.178;2024-02-21T06:52:35;4.88;;;2.63;;
7645;SDS011;3864;48.180;14.178;2024-02-21T06:57:29;5.75;;;2.10;;
7645;SDS011;3864;48.180;14.178;2024-02-21T06:59:58;6.10;;;2.42;;
7645;SDS011;3864;48.180;14.178;2024-02-21T07:02:25;5.28;;;2.20;;
7645;SDS011;3864;48.180;14.178;2024-02-21T07:04:52;3.88;;;2.20;;
7645;SDS011;3864;48.180;14.178;2024-02-21T07:09:46;5.38;;;2.20;;
7645;SDS011;3864;48.180;14.178;2024-02-21T07:12:13;5.07;;;2.50;;
7645;SDS011;3864;48.180;14.178;2024-02-21T07:14:41;6.30;;;2.72;;
7645;SDS011;3864;48.180;14.178;2024-02-21T07:17:09;3.75;;;2.13;;
7645;SDS011;3864;48.180;14.178;2024-02-21T07:19:36;5.60;;;2.33;;
7645;SDS011;3864;48.180;14.178;2024-02-21T07:22:04;7.57;;;2.83;;
7645;SDS011;3864;48.180;14.178;2024-02-21T07:24:31;4.53;;;2.58;;
7645;SDS011;3864;48.180;14.178;2024-02-21T07:26:58;4.03;;;2.25;;
7645;SDS011;3864;48.180;14.178;2024-02-21T07:29:29;5.78;;;2.30;;
7645;SDS011;3864;48.180;14.178;2024-02-21T07:31:56;3.88;;;2.20;;
7645;SDS011;3864;48.180;14.178;2024-02-21T07:34:25;4.00;;;2.40;;
7645;SDS011;3864;48.180;14.178;2024-02-21T07:36:52;4.72;;;2.47;;
7645;SDS011;3864;48.180;14.178;2024-02-21T07:39:19;5.20;;;2.90;;
7645;SDS011;3864;48.180;14.178;2024-02-21T07:41:46;7.22;;;2.75;;
7645;SDS011;3864;48.180;14.178;2024-02-21T07:44:14;4.35;;;2.47;;
7645;SDS011;3864;48.180;14.178;2024-02-21T07:46:41;6.15;;;2.53;;
7645;SDS011;3864;48.180;14.178;2024-02-21T07:49:08;3.58;;;2.40;;
7645;SDS011;3864;48.180;14.178;2024-02-21T07:51:37;4.22;;;2.40;;
7645;SDS011;3864;48.180;14.178;2024-02-21T07:54:04;5.03;;;2.53;;
7645;SDS011;3864;48.180;14.178;2024-02-21T07:56:31;5.68;;;3.15;;
7645;SDS011;3864;48.180;14.178;2024-02-21T07:58:58;5.45;;;2.40;;
7645;SDS011;3864;48.180;14.178;2024-02-21T08:01:25;7.18;;;2.65;;
7645;SDS011;3864;48.180;14.178;2024-02-21T08:03:52;4.60;;;2.67;;
7645;SDS011;3864;48.180;14.178;2024-02-21T08:06:19;3.67;;;2.75;;
7645;SDS011;3864;48.180;14.178;2024-02-21T08:08:47;4.63;;;2.47;;
7645;SDS011;3864;48.180;14.178;2024-02-21T08:11:14;5.88;;;2.78;;
7645;SDS011;3864;48.180;14.178;2024-02-21T08:13:42;4.57;;;2.40;;
7645;SDS011;3864;48.180;14.178;2024-02-21T08:16:09;5.47;;;2.97;;
7645;SDS011;3864;48.180;14.178;2024-02-21T08:18:36;4.57;;;2.47;;
7645;SDS011;3864;48.180;14.178;2024-02-21T08:21:04;6.50;;;2.60;;
7645;SDS011;3864;48.180;14.178;2024-02-21T08:23:33;5.13;;;3.10;;
7645;SDS011;3864;48.180;14.178;2024-02-21T08:26:02;8.05;;;3.08;;
7645;SDS011;3864;48.180;14.178;2024-02-21T08:28:29;4.53;;;2.70;;
7645;SDS011;3864;48.180;14.178;2024-02-21T08:30:56;6.80;;;2.97;;
7645;SDS011;3864;48.180;14.178;2024-02-21T08:33:23;5.50;;;2.63;;
7645;SDS011;3864;48.180;14.178;2024-02-21T08:35:51;5.88;;;2.58;;
7645;SDS011;3864;48.180;14.178;2024-02-21T08:38:18;7.90;;;2.90;;
7645;SDS011;3864;48.180;14.178;2024-02-21T08:40:45;6.03;;;2.60;;
7645;SDS011;3864;48.180;14.178;2024-02-21T08:43:14;9.45;;;4.25;;
7645;SDS011;3864;48.180;14.178;2024-02-21T08:45:43;6.40;;;2.90;;
7645;SDS011;3864;48.180;14.178;2024-02-21T08:48:11;5.43;;;3.08;;
7645;SDS011;3864;48.180;14.178;2024-02-21T08:50:38;6.60;;;3.03;;
7645;SDS011;3864;48.180;14.178;2024-02-21T08:53:05;7.05;;;2.90;;
7645;SDS011;3864;48.180;14.178;2024-02-21T08:55:32;7.15;;;3.03;;
7645;SDS011;3864;48.180;14.178;2024-02-21T08:58:00;5.88;;;2.92;;
7645;SDS011;3864;48.180;14.178;2024-02-21T09:00:30;7.60;;;3.58;;
7645;SDS011;3864;48.180;14.178;2024-02-21T09:02:58;6.43;;;3.00;;
7645;SDS011;3864;48.180;14.178;2024-02-21T09:05:25;7.40;;;4.00;;
7645;SDS011;3864;48.180;14.178;2024-02-21T09:07:52;10.10;;;3.92;;
7645;SDS011;3864;48.180;14.178;2024-02-21T09:10:19;7.10;;;3.67;;
7645;SDS011;3864;48.180;14.178;2024-02-21T09:12:46;10.35;;;4.07;;
7645;SDS011;3864;48.180;14.178;2024-02-21T09:15:13;12.73;;;3.80;;
7645;SDS011;3864;48.180;14.178;2024-02-21T09:17:42;7.72;;;3.53;;
7645;SDS011;3864;48.180;14.178;2024-02-21T09:20:10;4.82;;;2.63;;
7645;SDS011;3864;48.180;14.178;2024-02-21T09:22:41;6.60;;;2.90;;
7645;SDS011;3864;48.180;14.178;2024-02-21T09:25:08;7.75;;;2.42;;
7645;SDS011;3864;48.180;14.178;2024-02-21T09:27:37;4.18;;;2.30;;
7645;SDS011;3864;48.180;14.178;2024-02-21T09:30:05;4.15;;;2.40;;
7645;SDS011;3864;48.180;14.178;2024-02-21T09:32:32;13.95;;;3.10;;
7645;SDS011;3864;48.180;14.178;2024-02-21T09:35:01;6.20;;;2.42;;
7645;SDS011;3864;48.180;14.178;2024-02-21T09:37:28;7.13;;;2.22;;
7645;SDS011;3864;48.180;14.178;2024-02-21T09:39:55;6.38;;;2.58;;
7645;SDS011;3864;48.180;14.178;2024-02-21T09:42:22;5.57;;;2.47;;
7645;SDS011;3864;48.180;14.178;2024-02-21T09:44:58;5.00;;;2.35;;
7645;SDS011;3864;48.180;14.178;2024-02-21T09:47:28;6.00;;;2.55;;
7645;SDS011;3864;48.180;14.178;2024-02-21T09:50:08;5.65;;;2.45;;
7645;SDS011;3864;48.180;14.178;2024-02-21T09:52:36;7.10;;;2.17;;
7645;SDS011;3864;48.180;14.178;2024-02-21T09:55:04;4.18;;;2.17;;
7645;SDS011;3864;48.180;14.178;2024-02-21T09:57:35;5.93;;;2.33;;
7645;SDS011;3864;48.180;14.178;2024-02-21T10:00:04;7.63;;;2.55;;
7645;SDS011;3864;48.180;14.178;2024-02-21T10:02:33;5.22;;;2.58;;
7645;SDS011;3864;48.180;14.178;2024-02-21T10:05:01;5.60;;;2.00;;
7645;SDS011;3864;48.180;14.178;2024-02-21T10:07:35;5.07;;;1.80;;
7645;SDS011;3864;48.180;14.178;2024-02-21T10:10:03;4.20;;;2.13;;
7645;SDS011;3864;48.180;14.178;2024-02-21T10:12:31;5.30;;;2.10;;
7645;SDS011;3864;48.180;14.178;2024-02-21T10:15:01;4.57;;;2.13;;
7645;SDS011;3864;48.180;14.178;2024-02-21T10:17:28;4.88;;;2.00;;
7645;SDS011;3864;48.180;14.178;2024-02-21T10:20:02;6.85;;;2.42;;
7645;SDS011;3864;48.180;14.178;2024-02-21T10:22:35;4.35;;;2.15;;
7645;SDS011;3864;48.180;14.178;2024-02-21T10:25:07;6.88;;;2.40;;
7645;SDS011;3864;48.180;14.178;2024-02-21T10:27:34;6.50;;;2.65;;
7645;SDS011;3864;48.180;14.178;2024-02-21T10:30:02;5.07;;;2.20;;
7645;SDS011;3864;48.180;14.178;2024-02-21T10:32:31;3.75;;;2.28;;
7645;SDS011;3864;48.180;14.178;2024-02-21T10:35:01;5.88;;;2.88;;
7645;SDS011;3864;48.180;14.178;2024-02-21T10:37:29;6.18;;;2.10;;
7645;SDS011;3864;48.180;14.178;2024-02-21T10:39:58;4.28;;;1.90;;
7645;SDS011;3864;48.180;14.178;2024-02-21T10:42:28;4.50;;;2.25;;
7645;SDS011;3864;48.180;14.178;2024-02-21T10:45:00;4.43;;;2.17;;
7645;SDS011;3864;48.180;14.178;2024-02-21T10:47:29;4.88;;;2.00;;
7645;SDS011;3864;48.180;14.178;2024-02-21T10:50:01;4.70;;;2.30;;
7645;SDS011;3864;48.180;14.178;2024-02-21T10:52:32;4.57;;;2.10;;
7645;SDS011;3864;48.180;14.178;2024-02-21T10:55:13;4.00;;;2.00;;
7645;SDS011;3864;48.180;14.178;2024-02-21T10:57:48;4.30;;;1.98;;
7645;SDS011;3864;48.180;14.178;2024-02-21T11:00:17;7.45;;;2.15;;
7645;SDS011;3864;48.180;14.178;2024-02-21T11:02:44;5.95;;;2.08;;
7645;SDS011;3864;48.180;14.178;2024-02-21T11:05:12;4.32;;;2.00;;
7645;SDS011;3864;48.180;14.178;2024-02-21T11:07:41;4.38;;;2.15;;
7645;SDS011;3864;48.180;14.178;2024-02-21T11:10:22;5.53;;;2.00;;
7645;SDS011;3864;48.180;14.178;2024-02-21T11:12:52;4.80;;;1.98;;
7645;SDS011;3864;48.180;14.178;2024-02-21T11:15:24;4.78;;;2.00;;
7645;SDS011;3864;48.180;14.178;2024-02-21T11:17:55;4.10;;;1.80;;
7645;SDS011;3864;48.180;14.178;2024-02-21T11:20:31;6.38;;;2.20;;
7645;SDS011;3864;48.180;14.178;2024-02-21T11:22:59;5.78;;;2.30;;
7645;SDS011;3864;48.180;14.178;2024-02-21T11:25:29;5.47;;;1.85;;
7645;SDS011;3864;48.180;14.178;2024-02-21T11:27:59;4.05;;;2.00;;
7645;SDS011;3864;48.180;14.178;2024-02-21T11:30:27;6.75;;;2.33;;
7645;SDS011;3864;48.180;14.178;2024-02-21T11:33:02;5.60;;;2.30;;
7645;SDS011;3864;48.180;14.178;2024-02-21T11:35:32;5.90;;;2.30;;
7645;SDS011;3864;48.180;14.178;2024-02-21T11:38:10;7.03;;;2.30;;
7645;SDS011;3864;48.180;14.178;2024-02-21T11:40:43;5.15;;;2.33;;
7645;SDS011;3864;48.180;14.178;2024-02-21T11:43:11;4.93;;;2.53;;
7645;SDS011;3864;48.180;14.178;2024-02-21T11:45:38;4.72;;;2.20;;
7645;SDS011;3864;48.180;14.178;2024-02-21T11:48:05;5.15;;;2.40;;
7645;SDS011;3864;48.180;14.178;2024-02-21T11:50:34;4.95;;;1.90;;
7645;SDS011;3864;48.180;14.178;2024-02-21T11:53:01;6.07;;;2.10;;
7645;SDS011;3864;48.180;14.178;2024-02-21T11:55:29;3.72;;;2.10;;
7645;SDS011;3864;48.180;14.178;2024-02-21T11:57:58;4.35;;;1.70;;
7645;SDS011;3864;48.180;14.178;2024-02-21T12:00:25;5.60;;;1.90;;
7645;SDS011;3864;48.180;14.178;2024-02-21T12:02:52;6.25;;;2.67;;
7645;SDS011;3864;48.180;14.178;2024-02-21T12:05:26;4.05;;;1.67;;
7645;SDS011;3864;48.180;14.178;2024-02-21T12:07:55;4.43;;;2.13;;
7645;SDS011;3864;48.180;14.178;2024-02-21T12:10:23;3.85;;;1.90;;
7645;SDS011;3864;48.180;14.178;2024-02-21T12:12:52;4.82;;;1.67;;
7645;SDS011;3864;48.180;14.178;2024-02-21T12:15:24;5.05;;;1.70;;
7645;SDS011;3864;48.180;14.178;2024-02-21T12:17:52;3.13;;;1.70;;
7645;SDS011;3864;48.180;14.178;2024-02-21T12:20:20;4.50;;;1.65;;
7645;SDS011;3864;48.180;14.178;2024-02-21T12:22:49;4.20;;;1.90;;
7645;SDS011;3864;48.180;14.178;2024-02-21T12:25:17;4.28;;;1.98;;
7645;SDS011;3864;48.180;14.178;2024-02-21T12:27:47;3.35;;;1.85;;
7645;SDS011;3864;48.180;14.178;2024-02-21T12:30:30;5.97;;;1.70;;
7645;SDS011;3864;48.180;14.178;2024-02-21T12:32:58;3.83;;;1.70;;
7645;SDS011;3864;48.180;14.178;2024-02-21T12:35:26;7.38;;;2.10;;
7645;SDS011;3864;48.180;14.178;2024-02-21T12:37:54;5.47;;;2.00;;
7645;SDS011;3864;48.180;14.178;2024-02-21T12:40:21;4.00;;;1.70;;
7645;SDS011;3864;48.180;14.178;2024-02-21T12:42:49;4.55;;;1.70;;
7645;SDS011;3864;48.180;14.178;2024-02-21T12:45:17;3.30;;;1.50;;
7645;SDS011;3864;48.180;14.178;2024-02-21T12:47:46;4.20;;;1.67;;
7645;SDS011;3864;48.180;14.178;2024-02-21T12:50:13;4.68;;;1.98;;
7645;SDS011;3864;48.180;14.178;2024-02-21T12:52:40;7.70;;;1.95;;
7645;SDS011;3864;48.180;14.178;2024-02-21T12:55:07;4.88;;;1.60;;
7645;SDS011;3864;48.180;14.178;2024-02-21T12:57:37;3.38;;;1.77;;
7645;SDS011;3864;48.180;14.178;2024-02-21T13:00:05;4.60;;;1.60;;
7645;SDS011;3864;48.180;14.178;2024-02-21T13:02:34;5.55;;;1.77;;
7645;SDS011;3864;48.180;14.178;2024-02-21T13:05:03;5.53;;;1.73;;
7645;SDS011;3864;48.180;14.178;2024-02-21T13:07:31;3.83;;;1.80;;
7645;SDS011;3864;48.180;14.178;2024-02-21T13:09:59;4.28;;;2.00;;
7645;SDS011;3864;48.180;14.178;2024-02-21T13:12:26;7.28;;;1.95;;
7645;SDS011;3864;48.180;14.178;2024-02-21T13:14:55;4.35;;;1.95;;
7645;SDS011;3864;48.180;14.178;2024-02-21T13:17:22;4.50;;;1.95;;
7645;SDS011;3864;48.180;14.178;2024-02-21T13:19:55;5.10;;;1.80;;
7645;SDS011;3864;48.180;14.178;2024-02-21T13:22:23;3.47;;;1.83;;
7645;SDS011;3864;48.180;14.178;2024-02-21T13:24:52;4.47;;;1.70;;
7645;SDS011;3864;48.180;14.178;2024-02-21T13:27:19;6.50;;;2.00;;
7645;SDS011;3864;48.180;14.178;2024-02-21T13:29:46;4.53;;;1.77;;
7645;SDS011;3864;48.180;14.178;2024-02-21T13:32:13;2.90;;;1.60;;
7645;SDS011;3864;48.180;14.178;2024-02-21T13:34:40;2.80;;;1.60;;
7645;SDS011;3864;48.180;14.178;2024-02-21T13:37:08;4.95;;;1.80;;
7645;SDS011;3864;48.180;14.178;2024-02-21T13:39:36;3.83;;;1.83;;
7645;SDS011;3864;48.180;14.178;2024-02-21T13:42:04;4.13;;;1.58;;
7645;SDS011;3864;48.180;14.178;2024-02-21T13:44:31;6.00;;;2.30;;
7645;SDS011;3864;48.180;14.178;2024-02-21T13:46:59;4.10;;;1.90;;
7645;SDS011;3864;48.180;14.178;2024-02-21T13:49:27;5.28;;;2.17;;
7645;SDS011;3864;48.180;14.178;2024-02-21T13:51:55;4.07;;;1.60;;
7645;SDS011;3864;48.180;14.178;2024-02-21T13:54:22;3.40;;;1.83;;
7645;SDS011;3864;48.180;14.178;2024-02-21T13:56:51;4.35;;;1.70;;
7645;SDS011;3864;48.180;14.178;2024-02-21T13:59:18;4.50;;;2.22;;
7645;SDS011;3864;48.180;14.178;2024-02-21T14:01:45;4.78;;;1.75;;
7645;SDS011;3864;48.180;14.178;2024-02-21T14:04:12;5.72;;;2.45;;
7645;SDS011;3864;48.180;14.178;2024-02-21T14:06:39;3.97;;;1.85;;
7645;SDS011;3864;48.180;14.178;2024-02-21T14:09:08;4.95;;;1.70;;
7645;SDS011;3864;48.180;14.178;2024-02-21T14:11:36;4.20;;;1.40;;
7645;SDS011;3864;48.180;14.178;2024-02-21T14:14:06;3.42;;;1.80;;
7645;SDS011;3864;48.180;14.178;2024-02-21T14:16:33;4.68;;;1.60;;
7645;SDS011;3864;48.180;14.178;2024-02-21T14:19:00;4.38;;;1.70;;
7645;SDS011;3864;48.180;14.178;2024-02-21T14:21:28;4.43;;;1.70;;
7645;SDS011;3864;48.180;14.178;2024-02-21T14:23:55;3.95;;;1.80;;
7645;SDS011;3864;48.180;14.178;2024-02-21T14:26:23;3.90;;;1.58;;
7645;SDS011;3864;48.180;14.178;2024-02-21T14:28:50;4.22;;;1.60;;
7645;SDS011;3864;48.180;14.178;2024-02-21T14:31:19;3.92;;;1.70;;
7645;SDS011;3864;48.180;14.178;2024-02-21T14:33:46;6.10;;;2.00;;
7645;SDS011;3864;48.180;14.178;2024-02-21T14:36:13;3.50;;;1.60;;
7645;SDS011;3864;48.180;14.178;2024-02-21T14:38:41;3.10;;;1.63;;
7645;SDS011;3864;48.180;14.178;2024-02-21T14:41:09;3.20;;;1.40;;
7645;SDS011;3864;48.180;14.178;2024-02-21T14:43:37;2.85;;;1.40;;
7645;SDS011;3864;48.180;14.178;2024-02-21T14:46:04;3.25;;;1.63;;
7645;SDS011;3864;48.180;14.178;2024-02-21T14:48:33;4.75;;;1.83;;
7645;SDS011;3864;48.180;14.178;2024-02-21T14:51:01;5.05;;;1.95;;
7645;SDS011;3864;48.180;14.178;2024-02-21T14:53:29;3.30;;;1.70;;
7645;SDS011;3864;48.180;14.178;2024-02-21T14:55:56;4.97;;;1.70;;
7645;SDS011;3864;48.180;14.178;2024-02-21T14:58:24;3.67;;;1.45;;
7645;SDS011;3864;48.180;14.178;2024-02-21T15:00:52;3.90;;;1.70;;
7645;SDS011;3864;48.180;14.178;2024-02-21T15:03:19;4.60;;;1.73;;
7645;SDS011;3864;48.180;14.178;2024-02-21T15:05:48;2.97;;;1.50;;
7645;SDS011;3864;48.180;14.178;2024-02-21T15:08:15;3.28;;;1.52;;
7645;SDS011;3864;48.180;14.178;2024-02-21T15:10:45;3.58;;;1.60;;
7645;SDS011;3864;48.180;14.178;2024-02-21T15:13:12;4.63;;;1.63;;
7645;SDS011;3864;48.180;14.178;2024-02-21T15:15:39;2.85;;;1.27;;
7645;SDS011;3864;48.180;14.178;2024-02-21T15:18:07;2.60;;;1.30;;
7645;SDS011;3864;48.180;14.178;2024-02-21T15:20:34;2.67;;;1.40;;
7645;SDS011;3864;48.180;14.178;2024-02-21T15:23:04;3.15;;;1.55;;
7645;SDS011;3864;48.180;14.178;2024-02-21T15:25:31;4.38;;;1.33;;
7645;SDS011;3864;48.180;14.178;2024-02-21T15:27:59;4.05;;;1.40;;
7645;SDS011;3864;48.180;14.178;2024-02-21T15:30:27;3.53;;;1.70;;
7645;SDS011;3864;48.180;14.178;2024-02-21T15:32:56;3.13;;;1.38;;
7645;SDS011;3864;48.180;14.178;2024-02-21T15:35:26;2.42;;;1.40;;
7645;SDS011;3864;48.180;14.178;2024-02-21T15:37:54;2.92;;;1.50;;
7645;SDS011;3864;48.180;14.178;2024-02-21T15:40:22;3.20;;;1.52;;
7645;SDS011;3864;48.180;14.178;2024-02-21T15:42:50;4.25;;;1.80;;
7645;SDS011;3864;48.180;14.178;2024-02-21T15:45:18;2.88;;;1.40;;
7645;SDS011;3864;48.180;14.178;2024-02-21T15:47:46;6.10;;;1.77;;
7645;SDS011;3864;48.180;14.178;2024-02-21T15:50:13;3.67;;;2.20;;
7645;SDS011;3864;48.180;14.178;2024-02-21T15:52:40;6.03;;;2.17;;
7645;SDS011;3864;48.180;14.178;2024-02-21T15:55:08;3.35;;;2.08;;
7645;SDS011;3864;48.180;14.178;2024-02-21T15:57:38;3.90;;;1.60;;
7645;SDS011;3864;48.180;14.178;2024-02-21T16:00:06;3.63;;;1.80;;
7645;SDS011;3864;48.180;14.178;2024-02-21T16:02:37;4.78;;;2.38;;
7645;SDS011;3864;48.180;14.178;2024-02-21T16:05:06;4.20;;;1.60;;
7645;SDS011;3864;48.180;14.178;2024-02-21T16:07:35;4.50;;;1.65;;
7645;SDS011;3864;48.180;14.178;2024-02-21T16:10:03;2.60;;;1.40;;
7645;SDS011;3864;48.180;14.178;2024-02-21T16:12:32;3.05;;;1.38;;
7645;SDS011;3864;48.180;14.178;2024-02-21T16:15:01;5.00;;;1.60;;
7645;SDS011;3864;48.180;14.178;2024-02-21T16:17:29;3.10;;;2.00;;
7645;SDS011;3864;48.180;14.178;2024-02-21T16:19:57;4.07;;;1.90;;
7645;SDS011;3864;48.180;14.178;2024-02-21T16:22:25;4.55;;;2.15;;
7645;SDS011;3864;48.180;14.178;2024-02-21T16:24:52;4.10;;;2.10;;
7645;SDS011;3864;48.180;14.178;2024-02-21T16:27:20;3.17;;;1.60;;
7645;SDS011;3864;48.180;14.178;2024-02-21T16:29:47;4.32;;;1.65;;
7645;SDS011;3864;48.180;14.178;2024-02-21T16:32:16;3.22;;;1.50;;
7645;SDS011;3864;48.180;14.178;2024-02-21T16:34:43;5.75;;;2.45;;
7645;SDS011;3864;48.180;14.178;2024-02-21T16:37:11;3.33;;;2.03;;
7645;SDS011;3864;48.180;14.178;2024-02-21T16:39:39;3.97;;;2.67;;
7645;SDS011;3864;48.180;14.178;2024-02-21T16:42:06;6.00;;;2.10;;